createdAt,value
2022-10-18T00:03:25.176Z,81.40
2022-10-18T00:18:25.795Z,82.61
2022-10-18T00:33:25.926Z,83.72
2022-10-18T00:48:25.973Z,80.85
2022-10-18T01:03:26.125Z,82.87
2022-10-18T01:18:26.209Z,81.56
2022-10-18T01:33:26.799Z,81.36
2022-10-18T01:48:26.417Z,79.68
2022-10-18T02:03:26.518Z,78.17
2022-10-18T02:18:26.615Z,76.48
2022-10-18T02:33:26.754Z,73.55
2022-10-18T02:48:28.085Z,72.58
2022-10-18T03:03:29.459Z,71.40
2022-10-18T03:18:31.320Z,71.20
2022-10-18T03:33:32.696Z,71.40
2022-10-18T03:48:33.571Z,69.81
2022-10-18T04:03:33.709Z,66.30
2022-10-18T04:18:34.268Z,66.20
2022-10-18T04:33:33.880Z,67.05
2022-10-18T04:48:33.958Z,66.67
2022-10-18T05:03:34.049Z,65.89
2022-10-18T05:18:34.184Z,66.23
2022-10-18T05:33:34.775Z,64.17
2022-10-18T05:48:34.895Z,63.46
2022-10-18T06:03:36.797Z,63.21
2022-10-18T06:18:36.860Z,63.29
2022-10-18T06:33:36.941Z,62.27
2022-10-18T06:48:37.064Z,61.94
2022-10-18T07:03:37.143Z,61.23
2022-10-18T07:18:37.794Z,61.74
2022-10-18T07:33:38.910Z,61.30
2022-10-18T07:48:39.529Z,60.79
2022-10-18T08:03:40.104Z,60.39
2022-10-18T08:18:41.232Z,60.49
2022-10-18T08:33:40.821Z,60.19
2022-10-18T08:48:42.338Z,60.36
2022-10-18T09:03:42.903Z,59.85
2022-10-18T09:18:44.244Z,59.65
2022-10-18T09:33:45.711Z,59.75
2022-10-18T09:48:45.805Z,59.25
2022-10-18T10:03:45.881Z,59.27
2022-10-18T10:18:46.494Z,59.38
2022-10-18T10:33:47.113Z,59.07
2022-10-18T10:48:49.006Z,58.94
2022-10-18T11:03:49.161Z,59.25
2022-10-18T11:18:49.226Z,59.05
2022-10-18T11:34:09.280Z,58.61
2022-10-18T11:48:54.917Z,58.41
2022-10-18T12:03:54.495Z,57.95
2022-10-18T12:18:56.385Z,63.10
2022-10-18T12:33:58.748Z,71.73
2022-10-18T12:48:58.496Z,74.77
2022-10-18T13:03:58.612Z,79.52
2022-10-18T13:18:58.696Z,79.52
2022-10-18T13:34:00.186Z,84.69
2022-10-18T13:49:00.197Z,93.13
2022-10-18T14:04:01.563Z,99.99
2022-10-18T14:19:02.139Z,99.99
2022-10-18T14:34:02.725Z,99.99
2022-10-18T14:49:04.580Z,99.99
2022-10-18T15:04:04.765Z,99.99
2022-10-18T15:19:05.302Z,99.99
2022-10-18T15:34:05.610Z,99.99
2022-10-18T15:49:05.700Z,99.65
2022-10-18T16:04:06.487Z,96.34
2022-10-18T16:19:07.827Z,91.84
2022-10-18T16:34:09.013Z,88.85
2022-10-18T16:49:10.963Z,85.68
2022-10-18T17:04:11.979Z,84.36
2022-10-18T17:19:13.330Z,80.87
2022-10-18T17:34:16.462Z,83.64
2022-10-18T17:49:18.557Z,79.82
2022-10-18T18:04:19.116Z,79.96
2022-10-18T18:19:19.261Z,78.23
2022-10-18T18:34:19.342Z,77.30
2022-10-18T18:49:18.986Z,72.00
2022-10-18T19:04:19.614Z,69.91
2022-10-18T19:19:21.797Z,69.74
2022-10-18T19:34:23.463Z,69.49
2022-10-18T19:49:24.071Z,70.94
2022-10-18T20:04:25.495Z,69.67
2022-10-18T20:19:25.599Z,70.22
2022-10-18T20:34:25.711Z,69.43
2022-10-18T20:49:26.349Z,65.58
2022-10-18T21:04:27.437Z,67.02
2022-10-18T21:19:28.586Z,68.51
2022-10-18T21:34:29.179Z,70.09
2022-10-18T21:49:29.309Z,69.75
2022-10-18T22:04:29.405Z,76.27
2022-10-18T22:19:30.793Z,81.65
2022-10-18T22:34:32.156Z,85.55
2022-10-18T22:49:33.092Z,98.81
2022-10-18T23:04:33.217Z,96.05
2022-10-18T23:19:33.835Z,95.75
2022-10-18T23:34:34.398Z,95.03
2022-10-18T23:49:34.585Z,95.64
